Time;durP1;ratioP1;P1;durP2;ratioP2;P2;SDS_P1;SDS_P2;PMS_P1;PMS_P2;Temp;Humidity;BMP_temperature;BMP_pressure;BME280_temperature;BME280_humidity;BME280_pressure;Samples;Min_cycle;Max_cycle;Signal;HPM_P1;HPM_P2
2022/09/18 00:01:23;;;;;;;;;;;19.10;99.90;;;;;;4590021;19;19990;-24
2022/09/18 00:02:54;;;;;;;;;;;19.00;99.90;;;;;;4590916;19;19911;-27
2022/09/18 00:04:26;;;;;;;;;;;19.10;99.90;;;;;;4590873;19;19923;-28
2022/09/18 00:05:57;;;;;;;;;;;19.10;99.90;;;;;;4590612;19;19922;-27
2022/09/18 00:07:29;;;;;;;;;;;19.10;99.90;;;;;;4590984;19;20308;-26
2022/09/18 00:09:00;;;;;;;;;;;19.10;99.90;;;;;;4590890;19;20446;-24
2022/09/18 00:10:31;;;;;;;;;;;19.10;99.90;;;;;;4589837;19;19919;-23
2022/09/18 00:12:02;;;;;;;;;;;19.00;99.90;;;;;;4589772;19;19915;-23
2022/09/18 00:13:34;;;;;;;;;;;19.00;99.90;;;;;;4589217;19;19933;-27
2022/09/18 00:15:06;;;;;;;;;;;19.00;99.90;;;;;;4590850;19;19921;-29
2022/09/18 00:16:37;;;;;;;;;;;19.00;99.90;;;;;;4590805;19;19919;-27
2022/09/18 00:18:09;;;;;;;;;;;19.00;99.90;;;;;;4590524;19;19915;-26
2022/09/18 00:19:40;;;;;;;;;;;19.00;99.90;;;;;;4590968;19;19911;-24
2022/09/18 00:21:12;;;;;;;;;;;19.10;99.90;;;;;;4590521;19;20364;-24
2022/09/18 00:22:45;;;;;;;;;;;19.00;99.90;;;;;;4590516;19;19929;-25
2022/09/18 00:24:16;;;;;;;;;;;19.00;99.90;;;;;;4590602;19;19926;-28
2022/09/18 00:25:47;;;;;;;;;;;19.10;99.90;;;;;;4590822;19;19915;-26
2022/09/18 00:27:18;;;;;;;;;;;19.00;99.90;;;;;;4590431;19;19914;-26
2022/09/18 00:28:49;;;;;;;;;;;19.00;99.90;;;;;;4590312;19;19922;-27
2022/09/18 00:30:20;;;;;;;;;;;19.00;99.90;;;;;;4591151;19;20236;-26
2022/09/18 00:31:51;;;;;;;;;;;19.10;99.90;;;;;;4589973;19;19919;-25
2022/09/18 00:33:22;;;;;;;;;;;19.00;99.90;;;;;;4590242;19;20332;-26
2022/09/18 00:34:53;;;;;;;;;;;19.00;99.90;;;;;;4590532;19;19926;-27
2022/09/18 00:36:24;;;;;;;;;;;19.10;99.90;;;;;;4590731;19;19966;-24
2022/09/18 00:37:55;;;;;;;;;;;19.00;99.90;;;;;;4590309;19;19921;-28
2022/09/18 00:39:26;;;;;;;;;;;19.00;99.90;;;;;;4590184;19;19925;-24
2022/09/18 00:40:58;;;;;;;;;;;19.00;99.90;;;;;;4590543;19;19919;-25
2022/09/18 00:42:29;;;;;;;;;;;19.00;99.90;;;;;;4587443;19;19932;-24
2022/09/18 00:44:19;;;;;;;;;;;19.00;99.90;;;;;;4589544;19;19919;-28
2022/09/18 00:45:52;;;;;;;;;;;19.00;99.90;;;;;;4590143;19;20356;-27
2022/09/18 00:47:39;;;;;;;;;;;19.00;99.90;;;;;;4589862;19;19919;-24
2022/09/18 00:49:12;;;;;;;;;;;19.00;99.90;;;;;;4590358;19;19915;-26
2022/09/18 00:50:43;;;;;;;;;;;19.00;99.90;;;;;;4590255;19;19966;-25
2022/09/18 00:52:14;;;;;;;;;;;19.00;99.90;;;;;;4589031;19;20246;-24
2022/09/18 00:53:47;;;;;;;;;;;19.00;99.90;;;;;;4588908;19;19918;-28
2022/09/18 00:55:19;;;;;;;;;;;19.00;99.90;;;;;;4589889;19;19911;-24
2022/09/18 00:56:51;;;;;;;;;;;19.00;99.90;;;;;;4590080;19;20347;-27
2022/09/18 00:58:22;;;;;;;;;;;19.00;99.90;;;;;;4589084;19;19923;-24
2022/09/18 00:59:53;;;;;;;;;;;19.00;99.90;;;;;;4589581;19;20357;-26
2022/09/18 01:01:24;;;;;;;;;;;19.00;99.90;;;;;;4590130;19;19911;-24
2022/09/18 01:02:55;;;;;;;;;;;19.00;99.90;;;;;;4589912;19;19978;-25
2022/09/18 01:04:26;;;;;;;;;;;19.00;99.90;;;;;;4589953;19;19915;-24
2022/09/18 01:06:03;;;;;;;;;;;19.00;99.90;;;;;;4589762;19;19923;-26
2022/09/18 01:07:57;;;;;;;;;;;19.00;99.90;;;;;;4589564;19;19923;-28
2022/09/18 01:09:47;;;;;;;;;;;19.00;99.90;;;;;;4589384;19;19933;-26
2022/09/18 01:11:25;;;;;;;;;;;19.00;99.90;;;;;;4589465;19;19919;-25
2022/09/18 01:12:59;;;;;;;;;;;19.00;99.90;;;;;;4589773;19;19918;-26
2022/09/18 01:14:32;;;;;;;;;;;19.00;99.90;;;;;;4589949;19;19918;-25
2022/09/18 01:16:09;;;;;;;;;;;19.00;99.90;;;;;;4590076;19;19926;-25
2022/09/18 01:17:45;;;;;;;;;;;19.00;99.90;;;;;;4589614;19;19915;-28
2022/09/18 01:19:34;;;;;;;;;;;19.00;99.90;;;;;;4588451;19;19923;-25
2022/09/18 01:21:38;;;;;;;;;;;19.00;99.90;;;;;;4589395;19;20324;-26
2022/09/18 01:23:13;;;;;;;;;;;18.90;99.90;;;;;;4587644;19;20002;-26
2022/09/18 01:24:48;;;;;;;;;;;19.00;99.90;;;;;;4587380;19;19923;-26
2022/09/18 01:26:29;;;;;;;;;;;19.00;99.90;;;;;;4590425;19;20337;-24
2022/09/18 01:28:10;;;;;;;;;;;19.00;99.90;;;;;;4591148;19;19919;-27
2022/09/18 01:29:41;;;;;;;;;;;19.00;99.90;;;;;;4591990;19;19926;-28
2022/09/18 01:31:15;;;;;;;;;;;19.00;99.90;;;;;;4591948;19;19925;-23
2022/09/18 01:32:47;;;;;;;;;;;19.00;99.90;;;;;;4592287;19;19915;-27
2022/09/18 01:34:34;;;;;;;;;;;19.00;99.90;;;;;;4591928;19;19940;-25
2022/09/18 01:36:06;;;;;;;;;;;19.00;99.90;;;;;;4591807;19;19926;-25
2022/09/18 01:37:40;;;;;;;;;;;19.00;99.90;;;;;;4591647;19;19919;-28
2022/09/18 01:39:26;;;;;;;;;;;19.00;99.90;;;;;;4591825;19;20009;-24
2022/09/18 01:40:57;;;;;;;;;;;19.00;99.90;;;;;;4591766;19;19919;-25
2022/09/18 01:42:29;;;;;;;;;;;19.00;99.90;;;;;;4590638;19;19918;-26
2022/09/18 01:44:04;;;;;;;;;;;18.90;99.90;;;;;;4591594;19;20273;-27
2022/09/18 01:45:36;;;;;;;;;;;19.00;99.90;;;;;;4591433;19;20285;-24
2022/09/18 01:47:09;;;;;;;;;;;19.00;99.90;;;;;;4591568;19;20329;-26
2022/09/18 01:48:41;;;;;;;;;;;19.00;99.90;;;;;;4590096;19;20409;-27
2022/09/18 01:50:13;;;;;;;;;;;19.00;99.90;;;;;;4591656;19;19923;-24
2022/09/18 01:51:47;;;;;;;;;;;19.00;99.90;;;;;;4591660;19;19947;-28
2022/09/18 01:53:20;;;;;;;;;;;18.90;99.90;;;;;;4591368;19;19914;-24
2022/09/18 01:54:51;;;;;;;;;;;18.90;99.90;;;;;;4591429;19;19914;-24
2022/09/18 01:56:23;;;;;;;;;;;18.90;99.90;;;;;;4591472;19;19989;-28
2022/09/18 01:57:56;;;;;;;;;;;18.90;99.90;;;;;;4591220;19;20269;-26
2022/09/18 01:59:29;;;;;;;;;;;18.90;99.90;;;;;;4591294;19;19936;-26
2022/09/18 02:01:01;;;;;;;;;;;18.90;99.90;;;;;;4591325;19;19927;-25
2022/09/18 02:02:32;;;;;;;;;;;18.90;99.90;;;;;;4591408;19;19943;-23
2022/09/18 02:04:05;;;;;;;;;;;18.90;99.90;;;;;;4591421;19;19911;-26
2022/09/18 02:05:37;;;;;;;;;;;18.90;99.90;;;;;;4591284;19;20241;-27
2022/09/18 02:07:13;;;;;;;;;;;18.90;99.90;;;;;;4591325;19;19933;-25
2022/09/18 02:08:48;;;;;;;;;;;18.90;99.90;;;;;;4590381;19;19941;-27
2022/09/18 02:10:19;;;;;;;;;;;18.90;99.90;;;;;;4592171;19;20347;-27
2022/09/18 02:11:51;;;;;;;;;;;18.90;99.90;;;;;;4591456;19;19919;-25
2022/09/18 02:13:30;;;;;;;;;;;18.90;99.90;;;;;;4592962;19;19923;-27
2022/09/18 02:15:02;;;;;;;;;;;18.90;99.90;;;;;;4592493;19;19922;-29
2022/09/18 02:16:34;;;;;;;;;;;18.90;99.90;;;;;;4591965;19;19926;-24
2022/09/18 02:18:07;;;;;;;;;;;18.90;99.90;;;;;;4590746;19;19919;-29
2022/09/18 02:19:41;;;;;;;;;;;18.90;99.90;;;;;;4590894;19;19923;-27
2022/09/18 02:21:13;;;;;;;;;;;18.90;99.90;;;;;;4590854;19;20282;-27
2022/09/18 02:22:44;;;;;;;;;;;18.90;99.90;;;;;;4590813;19;19933;-31
2022/09/18 02:24:16;;;;;;;;;;;18.90;99.90;;;;;;4590947;19;20452;-26
2022/09/18 02:25:49;;;;;;;;;;;18.90;99.90;;;;;;4590859;19;19915;-27
2022/09/18 02:27:20;;;;;;;;;;;18.90;99.90;;;;;;4590694;19;19926;-29
2022/09/18 02:28:51;;;;;;;;;;;18.90;99.90;;;;;;4589710;19;20311;-25
2022/09/18 02:30:22;;;;;;;;;;;18.90;99.90;;;;;;4590732;19;19914;-26
2022/09/18 02:31:53;;;;;;;;;;;18.90;99.90;;;;;;4590717;19;19922;-26
2022/09/18 02:33:28;;;;;;;;;;;18.90;99.90;;;;;;4590599;19;19910;-25
2022/09/18 02:34:59;;;;;;;;;;;18.90;99.90;;;;;;4590965;19;19929;-24
2022/09/18 02:36:32;;;;;;;;;;;18.80;99.90;;;;;;4589919;19;19944;-27
2022/09/18 02:38:10;;;;;;;;;;;18.80;99.90;;;;;;4590711;19;19928;-27
2022/09/18 02:39:59;;;;;;;;;;;18.80;99.90;;;;;;4590914;19;19919;-28
2022/09/18 02:41:30;;;;;;;;;;;18.80;99.90;;;;;;4590838;19;19914;-27
2022/09/18 02:43:07;;;;;;;;;;;18.80;99.90;;;;;;4589359;19;19923;-24
2022/09/18 02:44:38;;;;;;;;;;;18.90;99.90;;;;;;4590476;19;20286;-26
2022/09/18 02:46:28;;;;;;;;;;;18.90;99.90;;;;;;4590582;19;19910;-27
2022/09/18 02:48:01;;;;;;;;;;;18.80;99.90;;;;;;4590039;19;19911;-25
2022/09/18 02:49:35;;;;;;;;;;;18.90;99.90;;;;;;4590820;19;19915;-26
2022/09/18 02:51:15;;;;;;;;;;;18.80;99.90;;;;;;4590235;19;20311;-26
2022/09/18 02:53:13;;;;;;;;;;;18.80;99.90;;;;;;4590493;19;19939;-28
2022/09/18 02:54:43;;;;;;;;;;;18.80;99.90;;;;;;4590271;19;19911;-26
2022/09/18 02:56:17;;;;;;;;;;;18.80;99.90;;;;;;4590426;19;19915;-25
2022/09/18 02:57:52;;;;;;;;;;;18.80;99.90;;;;;;4590439;19;19918;-27
2022/09/18 02:59:29;;;;;;;;;;;18.90;99.90;;;;;;4590015;19;19915;-25
2022/09/18 03:01:01;;;;;;;;;;;18.80;99.90;;;;;;4590084;19;20411;-25
2022/09/18 03:02:32;;;;;;;;;;;18.80;99.90;;;;;;4590030;19;19927;-26
2022/09/18 03:04:04;;;;;;;;;;;18.80;99.90;;;;;;4590346;19;19923;-26
2022/09/18 03:05:35;;;;;;;;;;;18.80;99.90;;;;;;4589702;19;20424;-24
2022/09/18 03:07:06;;;;;;;;;;;18.80;99.90;;;;;;4589833;19;20043;-27
2022/09/18 03:08:37;;;;;;;;;;;18.80;99.90;;;;;;4588795;19;19915;-27
2022/09/18 03:10:08;;;;;;;;;;;18.80;99.90;;;;;;4589981;19;20410;-25
2022/09/18 03:11:39;;;;;;;;;;;18.80;99.90;;;;;;4589319;19;19915;-26
2022/09/18 03:13:10;;;;;;;;;;;18.80;99.90;;;;;;4589617;19;19974;-24
2022/09/18 03:14:41;;;;;;;;;;;18.80;99.90;;;;;;4589832;19;20001;-28
2022/09/18 03:16:12;;;;;;;;;;;18.80;99.90;;;;;;4589882;19;19919;-23
2022/09/18 03:17:43;;;;;;;;;;;18.80;99.90;;;;;;4589681;19;19915;-26
2022/09/18 03:19:14;;;;;;;;;;;18.80;99.90;;;;;;4589739;19;19915;-26
2022/09/18 03:20:46;;;;;;;;;;;18.80;99.90;;;;;;4589973;19;19942;-26
2022/09/18 03:22:16;;;;;;;;;;;18.80;99.90;;;;;;4589562;19;20351;-27
2022/09/18 03:23:48;;;;;;;;;;;18.80;99.90;;;;;;4589806;19;19923;-24
2022/09/18 03:25:19;;;;;;;;;;;18.80;99.90;;;;;;4589431;19;19911;-25
2022/09/18 03:26:51;;;;;;;;;;;18.80;99.90;;;;;;4589488;19;20332;-24
2022/09/18 03:28:22;;;;;;;;;;;18.80;99.90;;;;;;4588907;19;20329;-24
2022/09/18 03:29:53;;;;;;;;;;;18.80;99.90;;;;;;4589748;19;19919;-26
2022/09/18 03:31:23;;;;;;;;;;;18.80;99.90;;;;;;4590028;19;20321;-26
2022/09/18 03:32:55;;;;;;;;;;;18.80;99.90;;;;;;4591460;19;19930;-26
2022/09/18 03:34:25;;;;;;;;;;;18.80;99.90;;;;;;4590605;19;19966;-23
2022/09/18 03:35:56;;;;;;;;;;;18.80;99.90;;;;;;4591484;19;19944;-26
2022/09/18 03:37:27;;;;;;;;;;;18.80;99.90;;;;;;4591910;19;20361;-24
2022/09/18 03:38:59;;;;;;;;;;;18.80;99.90;;;;;;4591441;19;19923;-26
2022/09/18 03:40:30;;;;;;;;;;;18.80;99.90;;;;;;4591652;19;19928;-29
2022/09/18 03:42:01;;;;;;;;;;;18.80;99.90;;;;;;4590986;19;19915;-25
2022/09/18 03:43:33;;;;;;;;;;;18.80;99.90;;;;;;4591731;19;19947;-25
2022/09/18 03:45:04;;;;;;;;;;;18.80;99.90;;;;;;4591274;19;20350;-24
2022/09/18 03:46:35;;;;;;;;;;;18.70;99.90;;;;;;4591239;19;20286;-26
2022/09/18 03:48:06;;;;;;;;;;;18.80;99.90;;;;;;4589540;19;19919;-26
2022/09/18 03:49:37;;;;;;;;;;;18.80;99.90;;;;;;4590572;19;19915;-26
2022/09/18 03:51:08;;;;;;;;;;;18.80;99.90;;;;;;4591206;19;19959;-24
2022/09/18 03:52:39;;;;;;;;;;;18.80;99.90;;;;;;4591196;19;19919;-26
2022/09/18 03:54:10;;;;;;;;;;;18.80;99.90;;;;;;4591207;19;20248;-26
2022/09/18 03:55:41;;;;;;;;;;;18.80;99.90;;;;;;4591172;19;20244;-26
2022/09/18 03:57:12;;;;;;;;;;;18.80;99.90;;;;;;4591042;19;19919;-23
2022/09/18 03:58:43;;;;;;;;;;;18.80;99.90;;;;;;4591293;19;20237;-27
2022/09/18 04:00:14;;;;;;;;;;;18.70;99.90;;;;;;4591660;19;19922;-26
2022/09/18 04:01:46;;;;;;;;;;;18.70;99.90;;;;;;4591194;19;19915;-24
2022/09/18 04:03:17;;;;;;;;;;;18.70;99.90;;;;;;4590860;19;19995;-24
2022/09/18 04:04:48;;;;;;;;;;;18.80;99.90;;;;;;4591351;19;19929;-25
2022/09/18 04:06:19;;;;;;;;;;;18.80;99.90;;;;;;4590811;19;19923;-26
2022/09/18 04:07:49;;;;;;;;;;;18.70;99.90;;;;;;4590731;19;20325;-25
2022/09/18 04:09:21;;;;;;;;;;;18.70;99.90;;;;;;4590754;19;20259;-23
2022/09/18 04:10:52;;;;;;;;;;;18.80;99.90;;;;;;4591241;19;19919;-24
2022/09/18 04:12:23;;;;;;;;;;;18.80;99.90;;;;;;4589886;19;19932;-27
2022/09/18 04:13:54;;;;;;;;;;;18.80;99.90;;;;;;4591006;19;19918;-26
2022/09/18 04:15:25;;;;;;;;;;;18.80;99.90;;;;;;4590748;19;19926;-28
2022/09/18 04:16:56;;;;;;;;;;;18.80;99.90;;;;;;4591116;19;20316;-26
2022/09/18 04:18:27;;;;;;;;;;;18.80;99.90;;;;;;4590809;19;19911;-27
2022/09/18 04:19:58;;;;;;;;;;;18.80;99.90;;;;;;4590566;19;19919;-24
2022/09/18 04:21:31;;;;;;;;;;;18.80;99.90;;;;;;4591006;19;19915;-25
2022/09/18 04:23:02;;;;;;;;;;;18.70;99.90;;;;;;4590571;19;19923;-26
2022/09/18 04:24:35;;;;;;;;;;;18.70;99.90;;;;;;4590646;19;19947;-26
2022/09/18 04:26:09;;;;;;;;;;;18.70;99.90;;;;;;4590408;19;19959;-27
2022/09/18 04:27:40;;;;;;;;;;;18.80;99.90;;;;;;4590663;19;19923;-25
2022/09/18 04:29:11;;;;;;;;;;;18.80;99.90;;;;;;4590412;19;20262;-26
2022/09/18 04:30:42;;;;;;;;;;;18.70;99.90;;;;;;4590519;19;19921;-27
2022/09/18 04:32:13;;;;;;;;;;;18.80;99.90;;;;;;4590658;19;19919;-25
2022/09/18 04:33:45;;;;;;;;;;;18.80;99.90;;;;;;4590521;19;19919;-25
2022/09/18 04:35:16;;;;;;;;;;;18.70;99.90;;;;;;4589682;19;19929;-25
2022/09/18 04:36:47;;;;;;;;;;;18.70;99.90;;;;;;4590095;19;20258;-28
2022/09/18 04:38:26;;;;;;;;;;;18.70;99.90;;;;;;4590038;19;19922;-25
2022/09/18 04:39:57;;;;;;;;;;;18.80;99.90;;;;;;4589134;19;20256;-25
2022/09/18 04:41:28;;;;;;;;;;;18.80;99.90;;;;;;4589233;19;19915;-26
2022/09/18 04:42:59;;;;;;;;;;;18.70;99.90;;;;;;4588848;19;19944;-27
2022/09/18 04:44:30;;;;;;;;;;;18.70;99.90;;;;;;4589932;19;19943;-26
2022/09/18 04:46:02;;;;;;;;;;;18.70;99.90;;;;;;4589457;19;20247;-26
2022/09/18 04:47:33;;;;;;;;;;;18.70;99.90;;;;;;4588731;19;19925;-24
2022/09/18 04:49:03;;;;;;;;;;;18.80;99.90;;;;;;4588727;19;20329;-26
2022/09/18 04:50:34;;;;;;;;;;;18.80;99.90;;;;;;4588731;19;19915;-26
2022/09/18 04:52:06;;;;;;;;;;;18.80;99.90;;;;;;4588354;19;19927;-25
2022/09/18 04:53:38;;;;;;;;;;;18.70;99.90;;;;;;4590740;19;20268;-29
2022/09/18 04:55:09;;;;;;;;;;;18.70;99.90;;;;;;4590600;19;19915;-24
2022/09/18 04:56:40;;;;;;;;;;;18.70;99.90;;;;;;4590341;19;19915;-25
2022/09/18 04:58:12;;;;;;;;;;;18.70;99.90;;;;;;4589550;19;19919;-27
2022/09/18 04:59:43;;;;;;;;;;;18.70;99.90;;;;;;4590431;19;19915;-23
2022/09/18 05:01:14;;;;;;;;;;;18.70;99.90;;;;;;4593542;19;20293;-26
2022/09/18 05:02:45;;;;;;;;;;;18.70;99.90;;;;;;4593409;19;20443;-25
2022/09/18 05:04:16;;;;;;;;;;;18.80;99.90;;;;;;4591487;19;19931;-27
2022/09/18 05:05:47;;;;;;;;;;;18.70;99.90;;;;;;4592047;19;19914;-26
2022/09/18 05:07:18;;;;;;;;;;;18.80;99.90;;;;;;4595586;19;20368;-24
2022/09/18 05:08:50;;;;;;;;;;;18.70;99.90;;;;;;4592884;19;20268;-23
2022/09/18 05:10:21;;;;;;;;;;;18.80;99.90;;;;;;4594387;19;19937;-25
2022/09/18 05:11:54;;;;;;;;;;;18.80;99.90;;;;;;4593148;19;19911;-26
2022/09/18 05:13:25;;;;;;;;;;;18.90;99.90;;;;;;4593848;19;20316;-25
2022/09/18 05:14:56;;;;;;;;;;;18.90;99.90;;;;;;4593061;19;19919;-26
2022/09/18 05:16:27;;;;;;;;;;;19.00;99.90;;;;;;4593266;19;19959;-26
2022/09/18 05:17:59;;;;;;;;;;;19.00;99.90;;;;;;4592604;19;19915;-25
2022/09/18 05:19:30;;;;;;;;;;;19.10;99.90;;;;;;4592448;19;20586;-27
2022/09/18 05:21:01;;;;;;;;;;;19.10;99.90;;;;;;4594659;19;19919;-23
2022/09/18 05:22:33;;;;;;;;;;;19.10;99.90;;;;;;4594640;19;19923;-24
2022/09/18 05:24:04;;;;;;;;;;;19.10;99.90;;;;;;4592971;19;19914;-25
2022/09/18 05:25:35;;;;;;;;;;;19.10;99.90;;;;;;4593731;19;20325;-23
2022/09/18 05:27:06;;;;;;;;;;;19.10;99.90;;;;;;4593473;19;19919;-28
2022/09/18 05:28:37;;;;;;;;;;;19.20;99.90;;;;;;4591922;19;20098;-28
2022/09/18 05:30:08;;;;;;;;;;;19.20;99.90;;;;;;4592847;19;19934;-25
2022/09/18 05:31:40;;;;;;;;;;;19.20;99.90;;;;;;4592266;19;19922;-24
2022/09/18 05:33:12;;;;;;;;;;;19.20;99.90;;;;;;4591985;19;19945;-26
2022/09/18 05:34:43;;;;;;;;;;;19.20;99.90;;;;;;4592230;19;19939;-25
2022/09/18 05:36:14;;;;;;;;;;;19.20;99.90;;;;;;4593855;19;20332;-25
2022/09/18 05:37:45;;;;;;;;;;;19.20;99.90;;;;;;4593943;19;20252;-25
2022/09/18 05:39:16;;;;;;;;;;;19.20;99.90;;;;;;4593114;19;20455;-25
2022/09/18 05:40:50;;;;;;;;;;;19.20;99.90;;;;;;4593598;19;19919;-27
2022/09/18 05:42:21;;;;;;;;;;;19.20;99.90;;;;;;4591555;19;20343;-26
2022/09/18 05:43:52;;;;;;;;;;;19.20;99.90;;;;;;4593070;19;19927;-24
2022/09/18 05:45:23;;;;;;;;;;;19.10;99.90;;;;;;4592376;19;19926;-26
2022/09/18 05:46:54;;;;;;;;;;;19.10;99.90;;;;;;4594500;19;19915;-23
2022/09/18 05:48:25;;;;;;;;;;;19.10;99.90;;;;;;4592418;19;19919;-25
2022/09/18 05:49:56;;;;;;;;;;;19.10;99.90;;;;;;4593587;19;19919;-24
2022/09/18 05:51:27;;;;;;;;;;;19.10;99.90;;;;;;4593310;19;19945;-27
2022/09/18 05:53:02;;;;;;;;;;;19.10;99.90;;;;;;4593392;19;20237;-24
2022/09/18 05:54:35;;;;;;;;;;;19.10;99.90;;;;;;4593753;19;20248;-26
2022/09/18 05:56:06;;;;;;;;;;;19.10;99.90;;;;;;4593513;19;20321;-25
2022/09/18 05:57:37;;;;;;;;;;;19.10;99.90;;;;;;4593058;19;19974;-29
2022/09/18 05:59:08;;;;;;;;;;;19.10;99.90;;;;;;4593456;19;20317;-25
2022/09/18 06:00:39;;;;;;;;;;;19.10;99.90;;;;;;4593214;19;19918;-27
2022/09/18 06:02:10;;;;;;;;;;;19.10;99.90;;;;;;4593160;19;20333;-26
2022/09/18 06:03:41;;;;;;;;;;;19.10;99.90;;;;;;4593185;19;19985;-26
2022/09/18 06:05:12;;;;;;;;;;;19.10;99.90;;;;;;4593462;19;19930;-28
2022/09/18 06:06:43;;;;;;;;;;;19.10;99.90;;;;;;4593369;19;19911;-26
2022/09/18 06:08:14;;;;;;;;;;;19.10;99.90;;;;;;4591965;19;19915;-24
2022/09/18 06:09:45;;;;;;;;;;;19.10;99.90;;;;;;4594099;19;20320;-24
2022/09/18 06:11:16;;;;;;;;;;;19.00;99.90;;;;;;4591567;19;19926;-24
2022/09/18 06:12:47;;;;;;;;;;;19.10;99.90;;;;;;4593118;19;19942;-25
2022/09/18 06:14:18;;;;;;;;;;;19.00;99.90;;;;;;4592862;19;19930;-26
2022/09/18 06:15:50;;;;;;;;;;;19.00;99.90;;;;;;4593241;19;19967;-26
2022/09/18 06:17:22;;;;;;;;;;;19.00;99.90;;;;;;4591884;19;19927;-23
2022/09/18 06:18:53;;;;;;;;;;;19.00;99.90;;;;;;4592532;19;20367;-30
2022/09/18 06:20:24;;;;;;;;;;;19.00;99.90;;;;;;4592260;19;19922;-25
2022/09/18 06:21:54;;;;;;;;;;;19.00;99.90;;;;;;4592079;19;20468;-24
2022/09/18 06:23:26;;;;;;;;;;;19.00;99.90;;;;;;4591476;19;19919;-29
2022/09/18 06:24:57;;;;;;;;;;;19.00;99.90;;;;;;4591541;19;20252;-25
2022/09/18 06:26:28;;;;;;;;;;;18.90;99.90;;;;;;4593520;19;19923;-25
2022/09/18 06:27:59;;;;;;;;;;;19.00;99.90;;;;;;4592038;19;19926;-23
2022/09/18 06:29:31;;;;;;;;;;;18.90;99.90;;;;;;4592391;19;19932;-26
2022/09/18 06:31:02;;;;;;;;;;;17.40;99.90;;;;;;4593256;19;19922;-26
2022/09/18 06:32:33;;;;;;;;;;;16.30;99.90;;;;;;4591996;19;19922;-24
2022/09/18 06:34:04;;;;;;;;;;;15.90;99.90;;;;;;4591741;19;20015;-24
2022/09/18 06:35:35;;;;;;;;;;;15.70;99.90;;;;;;4591941;19;19922;-27
2022/09/18 06:37:09;;;;;;;;;;;15.50;99.90;;;;;;4591889;19;19922;-26
2022/09/18 06:38:40;;;;;;;;;;;15.50;99.90;;;;;;4591141;19;19918;-27
2022/09/18 06:40:11;;;;;;;;;;;15.50;99.90;;;;;;4590882;19;19923;-26
2022/09/18 06:41:42;;;;;;;;;;;15.40;99.90;;;;;;4591179;19;20015;-26
2022/09/18 06:43:13;;;;;;;;;;;15.40;99.90;;;;;;4590410;19;19922;-24
2022/09/18 06:44:44;;;;;;;;;;;15.40;99.90;;;;;;4592385;19;20328;-24
2022/09/18 06:46:14;;;;;;;;;;;15.40;99.90;;;;;;4592108;19;19922;-27
2022/09/18 06:47:46;;;;;;;;;;;15.30;99.90;;;;;;4592338;19;19947;-29
2022/09/18 06:49:16;;;;;;;;;;;15.40;99.90;;;;;;4592085;19;19919;-26
2022/09/18 06:50:54;;;;;;;;;;;15.40;99.90;;;;;;4591589;19;19918;-25
2022/09/18 06:52:25;;;;;;;;;;;15.30;99.90;;;;;;4590900;19;19915;-25
2022/09/18 06:53:56;;;;;;;;;;;15.30;99.90;;;;;;4591116;19;20499;-27
2022/09/18 06:55:27;;;;;;;;;;;15.30;99.90;;;;;;4592006;19;19919;-23
2022/09/18 06:56:58;;;;;;;;;;;15.30;99.90;;;;;;4590414;19;19948;-23
2022/09/18 06:58:29;;;;;;;;;;;15.30;99.90;;;;;;4589636;19;19941;-26
2022/09/18 07:00:00;;;;;;;;;;;15.30;99.90;;;;;;4591650;19;20272;-23
2022/09/18 07:01:31;;;;;;;;;;;15.30;99.90;;;;;;4590471;19;19922;-23
2022/09/18 07:03:02;;;;;;;;;;;15.30;99.90;;;;;;4590364;19;19919;-27
2022/09/18 07:04:34;;;;;;;;;;;15.30;99.90;;;;;;4589579;19;19919;-24
2022/09/18 07:06:07;;;;;;;;;;;15.30;99.90;;;;;;4589898;19;19926;-23
2022/09/18 07:07:38;;;;;;;;;;;15.30;99.90;;;;;;4589252;19;19914;-24
2022/09/18 07:09:09;;;;;;;;;;;15.30;99.90;;;;;;4589449;19;19929;-24
2022/09/18 07:10:40;;;;;;;;;;;15.30;99.90;;;;;;4591921;19;20317;-25
2022/09/18 07:12:11;;;;;;;;;;;15.30;99.90;;;;;;4590294;19;19948;-22
2022/09/18 07:13:42;;;;;;;;;;;15.30;99.90;;;;;;4591768;19;19919;-24
2022/09/18 07:15:16;;;;;;;;;;;15.40;99.90;;;;;;4590968;19;19982;-25
2022/09/18 07:16:47;;;;;;;;;;;15.40;99.90;;;;;;4591554;19;20237;-26
2022/09/18 07:18:18;;;;;;;;;;;15.30;99.90;;;;;;4590844;19;19947;-24
2022/09/18 07:20:02;;;;;;;;;;;15.30;99.90;;;;;;4591314;19;19922;-23
2022/09/18 07:21:33;;;;;;;;;;;15.30;99.90;;;;;;4593499;19;19932;-24
2022/09/18 07:23:04;;;;;;;;;;;15.30;99.90;;;;;;4590535;19;19941;-25
2022/09/18 07:24:36;;;;;;;;;;;15.30;99.90;;;;;;4592507;19;19915;-24
2022/09/18 07:26:07;;;;;;;;;;;15.30;99.90;;;;;;4591929;19;19930;-24
2022/09/18 07:27:37;;;;;;;;;;;15.30;99.90;;;;;;4590863;19;19911;-25
2022/09/18 07:29:08;;;;;;;;;;;15.30;99.90;;;;;;4590177;19;20260;-24
2022/09/18 07:30:41;;;;;;;;;;;15.30;99.90;;;;;;4592021;19;20349;-24
2022/09/18 07:32:13;;;;;;;;;;;15.30;99.90;;;;;;4589927;19;20388;-24
2022/09/18 07:33:44;;;;;;;;;;;15.30;99.90;;;;;;4592457;19;19915;-25
2022/09/18 07:35:15;;;;;;;;;;;15.40;99.90;;;;;;4592789;19;19923;-25
2022/09/18 07:36:49;;;;;;;;;;;15.30;99.90;;;;;;4590153;19;20327;-25
2022/09/18 07:38:20;;;;;;;;;;;15.30;99.90;;;;;;4589344;19;19919;-27
2022/09/18 07:39:52;;;;;;;;;;;15.30;99.90;;;;;;4592646;19;20376;-27
2022/09/18 07:41:23;;;;;;;;;;;15.30;99.90;;;;;;4592953;19;19917;-25
2022/09/18 07:42:58;;;;;;;;;;;15.30;99.90;;;;;;4590549;19;19918;-26
2022/09/18 07:44:33;;;;;;;;;;;15.30;99.90;;;;;;4590049;19;19938;-23
2022/09/18 07:46:04;;;;;;;;;;;15.30;99.90;;;;;;4590123;19;19925;-26
2022/09/18 07:47:35;;;;;;;;;;;15.30;99.90;;;;;;4591239;19;19939;-22
2022/09/18 07:49:06;;;;;;;;;;;15.30;99.90;;;;;;4590272;19;20351;-26
2022/09/18 07:50:37;;;;;;;;;;;15.30;99.90;;;;;;4590718;19;19927;-26
2022/09/18 07:52:08;;;;;;;;;;;15.40;99.90;;;;;;4591085;19;19931;-27
2022/09/18 07:53:40;;;;;;;;;;;15.40;99.90;;;;;;4589861;19;19915;-25
2022/09/18 07:55:11;;;;;;;;;;;15.30;99.90;;;;;;4589135;19;19919;-25
2022/09/18 07:56:42;;;;;;;;;;;15.30;99.90;;;;;;4591760;19;19918;-26
2022/09/18 07:58:13;;;;;;;;;;;15.30;99.90;;;;;;4592001;19;19967;-26
2022/09/18 07:59:44;;;;;;;;;;;15.40;99.90;;;;;;4591324;19;19929;-26
2022/09/18 08:01:15;;;;;;;;;;;15.40;99.90;;;;;;4590993;19;19948;-27
2022/09/18 08:02:46;;;;;;;;;;;15.40;99.90;;;;;;4590572;19;19975;-25
2022/09/18 08:04:17;;;;;;;;;;;15.40;99.90;;;;;;4590790;19;19919;-24
2022/09/18 08:05:48;;;;;;;;;;;15.40;99.90;;;;;;4590394;19;19919;-23
2022/09/18 08:07:20;;;;;;;;;;;15.40;99.90;;;;;;4590305;19;19927;-27
2022/09/18 08:08:51;;;;;;;;;;;15.40;99.90;;;;;;4589703;19;19974;-27
2022/09/18 08:10:22;;;;;;;;;;;15.50;99.90;;;;;;4590618;19;19945;-25
2022/09/18 08:11:53;;;;;;;;;;;15.50;99.90;;;;;;4589654;19;19923;-27
2022/09/18 08:13:24;;;;;;;;;;;15.50;99.90;;;;;;4590478;19;19974;-26
2022/09/18 08:14:55;;;;;;;;;;;15.40;99.90;;;;;;4590459;19;19922;-24
2022/09/18 08:16:26;;;;;;;;;;;15.40;99.90;;;;;;4591077;19;19986;-24
2022/09/18 08:17:57;;;;;;;;;;;15.40;99.90;;;;;;4589257;19;19915;-28
2022/09/18 08:19:28;;;;;;;;;;;15.40;99.90;;;;;;4588906;19;19974;-26
2022/09/18 08:20:59;;;;;;;;;;;15.50;99.90;;;;;;4589644;19;19923;-24
2022/09/18 08:22:30;;;;;;;;;;;15.50;99.90;;;;;;4588968;19;20389;-26
2022/09/18 08:24:01;;;;;;;;;;;15.50;99.90;;;;;;4589608;19;19915;-23
2022/09/18 08:25:33;;;;;;;;;;;15.50;99.90;;;;;;4589604;19;19915;-24
2022/09/18 08:27:03;;;;;;;;;;;15.40;99.90;;;;;;4589683;19;19915;-24
2022/09/18 08:28:34;;;;;;;;;;;15.40;99.90;;;;;;4588654;19;19945;-26
2022/09/18 08:30:06;;;;;;;;;;;15.40;99.90;;;;;;4589157;19;19914;-26
2022/09/18 08:31:37;;;;;;;;;;;15.50;99.90;;;;;;4590530;19;19933;-24
2022/09/18 08:33:09;;;;;;;;;;;15.50;99.90;;;;;;4590838;19;19944;-27
2022/09/18 08:34:40;;;;;;;;;;;15.40;99.90;;;;;;4589315;19;20278;-24
2022/09/18 08:36:10;;;;;;;;;;;15.40;99.90;;;;;;4590634;19;19919;-25
2022/09/18 08:37:48;;;;;;;;;;;15.40;99.90;;;;;;4590631;19;19922;-27
2022/09/18 08:39:21;;;;;;;;;;;15.40;99.90;;;;;;4590036;19;19922;-27
2022/09/18 08:40:51;;;;;;;;;;;15.50;99.90;;;;;;4588318;19;19930;-26
2022/09/18 08:42:22;;;;;;;;;;;15.50;99.90;;;;;;4587894;19;20002;-26
2022/09/18 08:44:02;;;;;;;;;;;15.40;99.90;;;;;;4588616;19;19932;-23
2022/09/18 08:45:40;;;;;;;;;;;15.40;99.90;;;;;;4587499;19;19979;-29
2022/09/18 08:47:17;;;;;;;;;;;15.40;99.90;;;;;;4588056;19;20337;-25
2022/09/18 08:49:03;;;;;;;;;;;15.40;99.90;;;;;;4587474;19;19929;-25
2022/09/18 08:50:35;;;;;;;;;;;15.40;99.90;;;;;;4588572;19;19923;-29
2022/09/18 08:52:16;;;;;;;;;;;15.40;99.90;;;;;;4587228;19;19915;-27
2022/09/18 08:53:49;;;;;;;;;;;15.30;99.90;;;;;;4588643;19;19919;-24
2022/09/18 08:55:20;;;;;;;;;;;15.30;99.90;;;;;;4589800;19;19931;-24
2022/09/18 08:56:51;;;;;;;;;;;15.40;99.90;;;;;;4588842;19;19929;-25
2022/09/18 08:58:29;;;;;;;;;;;15.30;99.90;;;;;;4589088;19;20256;-24